sensor_id;sensor_type;location;lat;lon;timestamp;P1;durP1;ratioP1;P2;durP2;ratioP2
4422;SDS011;2224;49.814;8.650;2024-02-15T00:02:20;8.80;;;6.70;;
4422;SDS011;2224;49.814;8.650;2024-02-15T00:04:45;9.33;;;6.97;;
4422;SDS011;2224;49.814;8.650;2024-02-15T00:07:11;7.40;;;6.70;;
4422;SDS011;2224;49.814;8.650;2024-02-15T00:09:36;11.87;;;7.03;;
4422;SDS011;2224;49.814;8.650;2024-02-15T00:12:01;8.87;;;7.87;;
4422;SDS011;2224;49.814;8.650;2024-02-15T00:14:27;7.20;;;6.50;;
4422;SDS011;2224;49.814;8.650;2024-02-15T00:16:56;6.50;;;5.90;;
4422;SDS011;2224;49.814;8.650;2024-02-15T00:19:22;10.03;;;5.77;;
4422;SDS011;2224;49.814;8.650;2024-02-15T00:21:48;8.60;;;6.80;;
4422;SDS011;2224;49.814;8.650;2024-02-15T00:24:14;8.17;;;5.90;;
4422;SDS011;2224;49.814;8.650;2024-02-15T00:26:42;9.40;;;6.40;;
4422;SDS011;2224;49.814;8.650;2024-02-15T00:29:07;11.70;;;6.33;;
4422;SDS011;2224;49.814;8.650;2024-02-15T00:31:33;7.97;;;6.53;;
4422;SDS011;2224;49.814;8.650;2024-02-15T00:33:58;8.33;;;5.73;;
4422;SDS011;2224;49.814;8.650;2024-02-15T00:36:24;8.53;;;5.50;;
4422;SDS011;2224;49.814;8.650;2024-02-15T00:38:49;10.50;;;5.57;;
4422;SDS011;2224;49.814;8.650;2024-02-15T00:41:16;6.33;;;5.73;;
4422;SDS011;2224;49.814;8.650;2024-02-15T00:43:41;7.97;;;5.80;;
4422;SDS011;2224;49.814;8.650;2024-02-15T00:46:06;9.90;;;7.17;;
4422;SDS011;2224;49.814;8.650;2024-02-15T00:48:32;9.47;;;6.80;;
4422;SDS011;2224;49.814;8.650;2024-02-15T00:50:57;10.83;;;5.50;;
4422;SDS011;2224;49.814;8.650;2024-02-15T00:53:23;13.00;;;5.70;;
4422;SDS011;2224;49.814;8.650;2024-02-15T00:55:49;6.13;;;5.53;;
4422;SDS011;2224;49.814;8.650;2024-02-15T00:58:15;6.43;;;5.83;;
4422;SDS011;2224;49.814;8.650;2024-02-15T01:00:40;7.90;;;5.57;;
4422;SDS011;2224;49.814;8.650;2024-02-15T01:03:05;5.97;;;5.37;;
4422;SDS011;2224;49.814;8.650;2024-02-15T01:05:31;5.53;;;5.03;;
4422;SDS011;2224;49.814;8.650;2024-02-15T01:07:56;7.30;;;5.20;;
4422;SDS011;2224;49.814;8.650;2024-02-15T01:10:22;11.03;;;5.30;;
4422;SDS011;2224;49.814;8.650;2024-02-15T01:12:49;8.13;;;5.87;;
4422;SDS011;2224;49.814;8.650;2024-02-15T01:15:14;7.40;;;6.30;;
4422;SDS011;2224;49.814;8.650;2024-02-15T01:17:43;7.23;;;5.50;;
4422;SDS011;2224;49.814;8.650;2024-02-15T01:20:08;8.40;;;6.90;;
4422;SDS011;2224;49.814;8.650;2024-02-15T01:22:34;7.20;;;5.70;;
4422;SDS011;2224;49.814;8.650;2024-02-15T01:25:00;8.77;;;6.07;;
4422;SDS011;2224;49.814;8.650;2024-02-15T01:27:25;11.63;;;6.57;;
4422;SDS011;2224;49.814;8.650;2024-02-15T01:29:54;7.73;;;6.13;;
4422;SDS011;2224;49.814;8.650;2024-02-15T01:32:20;8.07;;;5.90;;
4422;SDS011;2224;49.814;8.650;2024-02-15T01:34:45;11.30;;;6.30;;
4422;SDS011;2224;49.814;8.650;2024-02-15T01:37:11;8.20;;;5.97;;
4422;SDS011;2224;49.814;8.650;2024-02-15T01:39:36;6.93;;;6.23;;
4422;SDS011;2224;49.814;8.650;2024-02-15T01:42:01;10.03;;;6.60;;
4422;SDS011;2224;49.814;8.650;2024-02-15T01:44:28;9.30;;;6.30;;
4422;SDS011;2224;49.814;8.650;2024-02-15T01:46:53;9.17;;;6.10;;
4422;SDS011;2224;49.814;8.650;2024-02-15T01:49:20;9.10;;;6.77;;
4422;SDS011;2224;49.814;8.650;2024-02-15T01:51:47;8.10;;;6.47;;
4422;SDS011;2224;49.814;8.650;2024-02-15T01:54:14;9.80;;;6.07;;
4422;SDS011;2224;49.814;8.650;2024-02-15T01:56:43;7.40;;;6.70;;
4422;SDS011;2224;49.814;8.650;2024-02-15T01:59:08;7.80;;;6.13;;
4422;SDS011;2224;49.814;8.650;2024-02-15T02:01:35;6.47;;;5.80;;
4422;SDS011;2224;49.814;8.650;2024-02-15T02:04:00;11.43;;;6.60;;
4422;SDS011;2224;49.814;8.650;2024-02-15T02:06:26;7.93;;;5.97;;
4422;SDS011;2224;49.814;8.650;2024-02-15T02:08:52;6.87;;;6.17;;
4422;SDS011;2224;49.814;8.650;2024-02-15T02:11:21;7.53;;;6.23;;
4422;SDS011;2224;49.814;8.650;2024-02-15T02:13:47;9.43;;;6.87;;
4422;SDS011;2224;49.814;8.650;2024-02-15T02:16:25;6.93;;;5.70;;
4422;SDS011;2224;49.814;8.650;2024-02-15T02:18:54;6.83;;;6.13;;
4422;SDS011;2224;49.814;8.650;2024-02-15T02:21:21;7.23;;;5.80;;
4422;SDS011;2224;49.814;8.650;2024-02-15T02:23:47;11.60;;;5.73;;
4422;SDS011;2224;49.814;8.650;2024-02-15T02:26:16;8.33;;;6.20;;
4422;SDS011;2224;49.814;8.650;2024-02-15T02:28:41;5.90;;;5.30;;
4422;SDS011;2224;49.814;8.650;2024-02-15T02:31:07;6.03;;;5.40;;
4422;SDS011;2224;49.814;8.650;2024-02-15T02:33:32;7.23;;;5.20;;
4422;SDS011;2224;49.814;8.650;2024-02-15T02:36:00;6.00;;;5.40;;
4422;SDS011;2224;49.814;8.650;2024-02-15T02:38:25;11.37;;;5.57;;
4422;SDS011;2224;49.814;8.650;2024-02-15T02:40:51;6.37;;;4.90;;
4422;SDS011;2224;49.814;8.650;2024-02-15T02:43:17;9.27;;;5.37;;
4422;SDS011;2224;49.814;8.650;2024-02-15T02:45:42;7.00;;;5.57;;
4422;SDS011;2224;49.814;8.650;2024-02-15T02:48:08;9.43;;;5.50;;
4422;SDS011;2224;49.814;8.650;2024-02-15T02:50:33;13.07;;;5.70;;
4422;SDS011;2224;49.814;8.650;2024-02-15T02:52:58;7.07;;;4.90;;
4422;SDS011;2224;49.814;8.650;2024-02-15T02:55:24;6.27;;;5.13;;
4422;SDS011;2224;49.814;8.650;2024-02-15T02:57:52;5.30;;;3.97;;
4422;SDS011;2224;49.814;8.650;2024-02-15T03:00:18;7.23;;;5.27;;
4422;SDS011;2224;49.814;8.650;2024-02-15T03:02:43;6.37;;;4.70;;
4422;SDS011;2224;49.814;8.650;2024-02-15T03:05:08;7.17;;;5.70;;
4422;SDS011;2224;49.814;8.650;2024-02-15T03:07:35;6.70;;;5.13;;
4422;SDS011;2224;49.814;8.650;2024-02-15T03:10:02;7.80;;;4.37;;
4422;SDS011;2224;49.814;8.650;2024-02-15T03:12:36;8.10;;;5.77;;
4422;SDS011;2224;49.814;8.650;2024-02-15T03:15:02;5.53;;;5.03;;
4422;SDS011;2224;49.814;8.650;2024-02-15T03:17:28;8.60;;;4.73;;
4422;SDS011;2224;49.814;8.650;2024-02-15T03:19:56;6.27;;;4.57;;
4422;SDS011;2224;49.814;8.650;2024-02-15T03:22:22;14.60;;;5.97;;
4422;SDS011;2224;49.814;8.650;2024-02-15T03:24:50;10.37;;;4.83;;
4422;SDS011;2224;49.814;8.650;2024-02-15T03:27:15;5.13;;;4.53;;
4422;SDS011;2224;49.814;8.650;2024-02-15T03:29:41;5.47;;;4.97;;
4422;SDS011;2224;49.814;8.650;2024-02-15T03:32:06;9.33;;;5.07;;
4422;SDS011;2224;49.814;8.650;2024-02-15T03:34:31;7.77;;;4.77;;
4422;SDS011;2224;49.814;8.650;2024-02-15T03:36:57;9.47;;;5.30;;
4422;SDS011;2224;49.814;8.650;2024-02-15T03:39:23;8.23;;;5.57;;
4422;SDS011;2224;49.814;8.650;2024-02-15T03:41:49;4.60;;;4.20;;
4422;SDS011;2224;49.814;8.650;2024-02-15T03:44:15;7.67;;;5.03;;
4422;SDS011;2224;49.814;8.650;2024-02-15T03:46:43;9.43;;;4.80;;
4422;SDS011;2224;49.814;8.650;2024-02-15T03:49:08;10.90;;;4.90;;
4422;SDS011;2224;49.814;8.650;2024-02-15T03:51:36;4.57;;;4.13;;
4422;SDS011;2224;49.814;8.650;2024-02-15T03:54:01;8.97;;;4.80;;
4422;SDS011;2224;49.814;8.650;2024-02-15T03:56:29;6.63;;;4.60;;
4422;SDS011;2224;49.814;8.650;2024-02-15T03:58:54;6.20;;;4.60;;
4422;SDS011;2224;49.814;8.650;2024-02-15T04:01:19;8.03;;;4.80;;
4422;SDS011;2224;49.814;8.650;2024-02-15T04:03:45;5.40;;;4.10;;
4422;SDS011;2224;49.814;8.650;2024-02-15T04:06:12;7.10;;;4.67;;
4422;SDS011;2224;49.814;8.650;2024-02-15T04:08:38;4.90;;;4.30;;
4422;SDS011;2224;49.814;8.650;2024-02-15T04:11:04;8.10;;;5.30;;
4422;SDS011;2224;49.814;8.650;2024-02-15T04:13:32;8.90;;;4.60;;
4422;SDS011;2224;49.814;8.650;2024-02-15T04:15:57;6.20;;;4.07;;
4422;SDS011;2224;49.814;8.650;2024-02-15T04:18:23;5.37;;;4.50;;
4422;SDS011;2224;49.814;8.650;2024-02-15T04:20:48;7.90;;;4.43;;
4422;SDS011;2224;49.814;8.650;2024-02-15T04:23:13;7.43;;;4.57;;
4422;SDS011;2224;49.814;8.650;2024-02-15T04:25:39;5.90;;;3.87;;
4422;SDS011;2224;49.814;8.650;2024-02-15T04:28:08;8.10;;;3.83;;
4422;SDS011;2224;49.814;8.650;2024-02-15T04:30:34;10.10;;;4.70;;
4422;SDS011;2224;49.814;8.650;2024-02-15T04:33:03;4.00;;;3.60;;
4422;SDS011;2224;49.814;8.650;2024-02-15T04:35:29;9.83;;;4.03;;
4422;SDS011;2224;49.814;8.650;2024-02-15T04:37:55;4.80;;;3.80;;
4422;SDS011;2224;49.814;8.650;2024-02-15T04:40:21;6.43;;;3.93;;
4422;SDS011;2224;49.814;8.650;2024-02-15T04:42:46;5.03;;;4.40;;
4422;SDS011;2224;49.814;8.650;2024-02-15T04:45:12;8.37;;;4.17;;
4422;SDS011;2224;49.814;8.650;2024-02-15T04:47:39;6.10;;;3.67;;
4422;SDS011;2224;49.814;8.650;2024-02-15T04:50:08;7.23;;;3.90;;
4422;SDS011;2224;49.814;8.650;2024-02-15T04:52:34;6.93;;;4.70;;
4422;SDS011;2224;49.814;8.650;2024-02-15T04:54:59;5.53;;;4.20;;
4422;SDS011;2224;49.814;8.650;2024-02-15T04:57:25;5.67;;;4.30;;
4422;SDS011;2224;49.814;8.650;2024-02-15T04:59:56;5.47;;;4.30;;
4422;SDS011;2224;49.814;8.650;2024-02-15T05:02:23;10.30;;;4.53;;
4422;SDS011;2224;49.814;8.650;2024-02-15T05:04:49;8.27;;;4.70;;
4422;SDS011;2224;49.814;8.650;2024-02-15T05:07:20;6.33;;;4.73;;
4422;SDS011;2224;49.814;8.650;2024-02-15T05:09:47;5.10;;;4.33;;
4422;SDS011;2224;49.814;8.650;2024-02-15T05:12:20;6.27;;;5.30;;
4422;SDS011;2224;49.814;8.650;2024-02-15T05:14:46;7.33;;;4.33;;
4422;SDS011;2224;49.814;8.650;2024-02-15T05:17:13;6.90;;;4.07;;
4422;SDS011;2224;49.814;8.650;2024-02-15T05:19:38;8.30;;;4.30;;
4422;SDS011;2224;49.814;8.650;2024-02-15T05:22:04;5.07;;;4.37;;
4422;SDS011;2224;49.814;8.650;2024-02-15T05:24:31;7.90;;;4.50;;
4422;SDS011;2224;49.814;8.650;2024-02-15T05:26:56;9.43;;;4.23;;
4422;SDS011;2224;49.814;8.650;2024-02-15T05:29:21;6.13;;;4.90;;
4422;SDS011;2224;49.814;8.650;2024-02-15T05:31:48;6.50;;;4.50;;
4422;SDS011;2224;49.814;8.650;2024-02-15T05:34:16;5.20;;;3.83;;
4422;SDS011;2224;49.814;8.650;2024-02-15T05:36:41;11.37;;;5.67;;
4422;SDS011;2224;49.814;8.650;2024-02-15T05:39:07;8.30;;;4.37;;
4422;SDS011;2224;49.814;8.650;2024-02-15T05:41:33;5.33;;;4.03;;
4422;SDS011;2224;49.814;8.650;2024-02-15T05:43:59;4.17;;;3.60;;
4422;SDS011;2224;49.814;8.650;2024-02-15T05:46:24;5.27;;;4.30;;
4422;SDS011;2224;49.814;8.650;2024-02-15T05:48:50;9.33;;;4.67;;
4422;SDS011;2224;49.814;8.650;2024-02-15T05:51:16;4.80;;;4.10;;
4422;SDS011;2224;49.814;8.650;2024-02-15T05:53:42;5.80;;;3.73;;
4422;SDS011;2224;49.814;8.650;2024-02-15T05:56:09;6.13;;;4.20;;
4422;SDS011;2224;49.814;8.650;2024-02-15T05:58:38;5.00;;;4.40;;
4422;SDS011;2224;49.814;8.650;2024-02-15T06:01:05;5.83;;;4.10;;
4422;SDS011;2224;49.814;8.650;2024-02-15T06:03:32;4.30;;;3.87;;
4422;SDS011;2224;49.814;8.650;2024-02-15T06:05:59;6.90;;;3.90;;
4422;SDS011;2224;49.814;8.650;2024-02-15T06:08:26;6.33;;;4.73;;
4422;SDS011;2224;49.814;8.650;2024-02-15T06:10:52;7.90;;;3.90;;
4422;SDS011;2224;49.814;8.650;2024-02-15T06:13:18;8.13;;;4.30;;
4422;SDS011;2224;49.814;8.650;2024-02-15T06:15:44;6.13;;;4.07;;
4422;SDS011;2224;49.814;8.650;2024-02-15T06:18:14;5.00;;;3.30;;
4422;SDS011;2224;49.814;8.650;2024-02-15T06:20:41;6.37;;;3.97;;
4422;SDS011;2224;49.814;8.650;2024-02-15T06:23:07;5.70;;;4.20;;
4422;SDS011;2224;49.814;8.650;2024-02-15T06:25:34;4.80;;;3.43;;
4422;SDS011;2224;49.814;8.650;2024-02-15T06:28:00;5.30;;;4.20;;
4422;SDS011;2224;49.814;8.650;2024-02-15T06:30:27;7.23;;;4.20;;
4422;SDS011;2224;49.814;8.650;2024-02-15T06:33:12;5.83;;;3.70;;
4422;SDS011;2224;49.814;8.650;2024-02-15T06:35:55;4.30;;;3.40;;
4422;SDS011;2224;49.814;8.650;2024-02-15T06:38:39;6.10;;;3.57;;
4422;SDS011;2224;49.814;8.650;2024-02-15T06:41:23;6.20;;;3.63;;
4422;SDS011;2224;49.814;8.650;2024-02-15T06:43:49;6.03;;;3.33;;
4422;SDS011;2224;49.814;8.650;2024-02-15T06:46:14;5.27;;;3.90;;
4422;SDS011;2224;49.814;8.650;2024-02-15T06:48:41;7.97;;;3.67;;
4422;SDS011;2224;49.814;8.650;2024-02-15T06:51:11;6.30;;;4.00;;
4422;SDS011;2224;49.814;8.650;2024-02-15T06:53:39;7.20;;;4.07;;
4422;SDS011;2224;49.814;8.650;2024-02-15T06:56:04;7.07;;;4.40;;
4422;SDS011;2224;49.814;8.650;2024-02-15T06:58:30;3.57;;;3.00;;
4422;SDS011;2224;49.814;8.650;2024-02-15T07:00:55;5.03;;;3.80;;
4422;SDS011;2224;49.814;8.650;2024-02-15T07:03:21;7.67;;;3.90;;
4422;SDS011;2224;49.814;8.650;2024-02-15T07:05:47;7.53;;;3.53;;
4422;SDS011;2224;49.814;8.650;2024-02-15T07:08:13;5.00;;;3.83;;
4422;SDS011;2224;49.814;8.650;2024-02-15T07:10:39;7.73;;;4.30;;
4422;SDS011;2224;49.814;8.650;2024-02-15T07:13:04;5.70;;;4.00;;
4422;SDS011;2224;49.814;8.650;2024-02-15T07:15:33;4.70;;;3.80;;
4422;SDS011;2224;49.814;8.650;2024-02-15T07:18:02;7.20;;;3.97;;
4422;SDS011;2224;49.814;8.650;2024-02-15T07:20:31;5.20;;;4.03;;
4422;SDS011;2224;49.814;8.650;2024-02-15T07:22:56;7.00;;;4.40;;
4422;SDS011;2224;49.814;8.650;2024-02-15T07:25:23;4.67;;;3.90;;
4422;SDS011;2224;49.814;8.650;2024-02-15T07:27:48;4.67;;;3.90;;
4422;SDS011;2224;49.814;8.650;2024-02-15T07:30:14;5.90;;;3.73;;
4422;SDS011;2224;49.814;8.650;2024-02-15T07:32:39;9.00;;;3.80;;
4422;SDS011;2224;49.814;8.650;2024-02-15T07:35:05;10.40;;;4.00;;
4422;SDS011;2224;49.814;8.650;2024-02-15T07:37:32;4.13;;;3.73;;
4422;SDS011;2224;49.814;8.650;2024-02-15T07:39:58;5.77;;;3.70;;
4422;SDS011;2224;49.814;8.650;2024-02-15T07:42:24;5.50;;;3.60;;
4422;SDS011;2224;49.814;8.650;2024-02-15T07:44:50;5.80;;;4.60;;
4422;SDS011;2224;49.814;8.650;2024-02-15T07:47:17;5.73;;;3.80;;
4422;SDS011;2224;49.814;8.650;2024-02-15T07:49:45;6.20;;;4.57;;
4422;SDS011;2224;49.814;8.650;2024-02-15T07:52:11;5.70;;;3.93;;
4422;SDS011;2224;49.814;8.650;2024-02-15T07:54:36;7.70;;;3.80;;
4422;SDS011;2224;49.814;8.650;2024-02-15T07:57:01;5.00;;;3.83;;
4422;SDS011;2224;49.814;8.650;2024-02-15T07:59:28;4.90;;;4.37;;
4422;SDS011;2224;49.814;8.650;2024-02-15T08:01:54;8.10;;;3.40;;
4422;SDS011;2224;49.814;8.650;2024-02-15T08:04:19;4.90;;;3.93;;
4422;SDS011;2224;49.814;8.650;2024-02-15T08:06:45;8.90;;;3.70;;
4422;SDS011;2224;49.814;8.650;2024-02-15T08:09:11;4.73;;;4.00;;
4422;SDS011;2224;49.814;8.650;2024-02-15T08:11:39;4.63;;;3.50;;
4422;SDS011;2224;49.814;8.650;2024-02-15T08:14:05;4.50;;;3.00;;
4422;SDS011;2224;49.814;8.650;2024-02-15T08:16:33;4.73;;;3.20;;
4422;SDS011;2224;49.814;8.650;2024-02-15T08:18:59;9.50;;;5.50;;
4422;SDS011;2224;49.814;8.650;2024-02-15T08:23:54;8.17;;;3.47;;
4422;SDS011;2224;49.814;8.650;2024-02-15T08:26:20;4.67;;;3.03;;
4422;SDS011;2224;49.814;8.650;2024-02-15T08:28:46;5.87;;;2.70;;
4422;SDS011;2224;49.814;8.650;2024-02-15T08:31:11;4.60;;;3.17;;
4422;SDS011;2224;49.814;8.650;2024-02-15T08:33:40;4.03;;;2.77;;
4422;SDS011;2224;49.814;8.650;2024-02-15T08:36:05;6.13;;;2.90;;
4422;SDS011;2224;49.814;8.650;2024-02-15T08:38:32;7.63;;;2.80;;
4422;SDS011;2224;49.814;8.650;2024-02-15T08:40:59;4.17;;;2.73;;
4422;SDS011;2224;49.814;8.650;2024-02-15T08:43:24;5.90;;;3.23;;
4422;SDS011;2224;49.814;8.650;2024-02-15T08:45:50;4.47;;;3.10;;
4422;SDS011;2224;49.814;8.650;2024-02-15T08:48:15;3.07;;;2.77;;
4422;SDS011;2224;49.814;8.650;2024-02-15T08:50:41;5.17;;;3.47;;
4422;SDS011;2224;49.814;8.650;2024-02-15T08:53:06;3.57;;;3.13;;
4422;SDS011;2224;49.814;8.650;2024-02-15T08:55:32;6.10;;;3.60;;
4422;SDS011;2224;49.814;8.650;2024-02-15T08:58:00;7.23;;;2.80;;
4422;SDS011;2224;49.814;8.650;2024-02-15T09:00:27;5.10;;;3.03;;
4422;SDS011;2224;49.814;8.650;2024-02-15T09:02:52;6.17;;;3.00;;
4422;SDS011;2224;49.814;8.650;2024-02-15T09:05:18;3.37;;;3.03;;
4422;SDS011;2224;49.814;8.650;2024-02-15T09:07:44;5.83;;;3.63;;
4422;SDS011;2224;49.814;8.650;2024-02-15T09:10:12;3.90;;;3.20;;
4422;SDS011;2224;49.814;8.650;2024-02-15T09:12:39;6.50;;;4.23;;
4422;SDS011;2224;49.814;8.650;2024-02-15T09:15:08;4.47;;;3.80;;
4422;SDS011;2224;49.814;8.650;2024-02-15T09:17:35;6.23;;;3.50;;
4422;SDS011;2224;49.814;8.650;2024-02-15T09:20:07;3.97;;;3.30;;
4422;SDS011;2224;49.814;8.650;2024-02-15T09:22:34;4.60;;;3.10;;
4422;SDS011;2224;49.814;8.650;2024-02-15T09:25:00;4.43;;;4.03;;
4422;SDS011;2224;49.814;8.650;2024-02-15T09:27:27;5.30;;;3.50;;
4422;SDS011;2224;49.814;8.650;2024-02-15T09:29:52;5.20;;;3.17;;
4422;SDS011;2224;49.814;8.650;2024-02-15T09:32:17;6.40;;;3.37;;
4422;SDS011;2224;49.814;8.650;2024-02-15T09:34:43;4.63;;;3.47;;
4422;SDS011;2224;49.814;8.650;2024-02-15T09:37:08;3.50;;;3.20;;
4422;SDS011;2224;49.814;8.650;2024-02-15T09:39:33;4.37;;;2.77;;
4422;SDS011;2224;49.814;8.650;2024-02-15T09:42:00;8.37;;;3.40;;
4422;SDS011;2224;49.814;8.650;2024-02-15T09:44:25;4.27;;;3.00;;
4422;SDS011;2224;49.814;8.650;2024-02-15T09:46:59;6.77;;;3.00;;
4422;SDS011;2224;49.814;8.650;2024-02-15T09:49:29;4.47;;;3.10;;
4422;SDS011;2224;49.814;8.650;2024-02-15T09:51:55;4.93;;;3.20;;
4422;SDS011;2224;49.814;8.650;2024-02-15T09:54:21;4.53;;;3.23;;
4422;SDS011;2224;49.814;8.650;2024-02-15T09:56:48;8.87;;;3.27;;
4422;SDS011;2224;49.814;8.650;2024-02-15T09:59:15;5.07;;;2.80;;
4422;SDS011;2224;49.814;8.650;2024-02-15T10:01:41;4.93;;;3.17;;
4422;SDS011;2224;49.814;8.650;2024-02-15T10:04:07;5.53;;;3.43;;
4422;SDS011;2224;49.814;8.650;2024-02-15T10:06:33;4.03;;;3.07;;
4422;SDS011;2224;49.814;8.650;2024-02-15T10:09:44;4.60;;;3.20;;
4422;SDS011;2224;49.814;8.650;2024-02-15T10:11:54;3.07;;;2.40;;
4422;SDS011;2224;49.814;8.650;2024-02-15T10:14:26;3.23;;;2.73;;
4422;SDS011;2224;49.814;8.650;2024-02-15T10:16:52;5.33;;;3.40;;
4422;SDS011;2224;49.814;8.650;2024-02-15T10:19:21;4.83;;;3.03;;
4422;SDS011;2224;49.814;8.650;2024-02-15T10:21:53;5.70;;;2.73;;
4422;SDS011;2224;49.814;8.650;2024-02-15T10:24:22;3.60;;;2.67;;
4422;SDS011;2224;49.814;8.650;2024-02-15T10:26:49;4.07;;;2.70;;
4422;SDS011;2224;49.814;8.650;2024-02-15T10:29:15;3.70;;;2.90;;
4422;SDS011;2224;49.814;8.650;2024-02-15T10:31:52;3.40;;;2.60;;
4422;SDS011;2224;49.814;8.650;2024-02-15T10:34:18;3.30;;;2.60;;
4422;SDS011;2224;49.814;8.650;2024-02-15T10:36:45;8.67;;;2.70;;
4422;SDS011;2224;49.814;8.650;2024-02-15T10:39:17;4.80;;;3.07;;
4422;SDS011;2224;49.814;8.650;2024-02-15T10:41:45;4.30;;;2.70;;
4422;SDS011;2224;49.814;8.650;2024-02-15T10:44:21;4.83;;;2.63;;
4422;SDS011;2224;49.814;8.650;2024-02-15T10:46:48;4.77;;;2.60;;
4422;SDS011;2224;49.814;8.650;2024-02-15T10:49:17;3.53;;;2.10;;
4422;SDS011;2224;49.814;8.650;2024-02-15T10:51:43;4.30;;;2.63;;
4422;SDS011;2224;49.814;8.650;2024-02-15T10:54:11;5.93;;;2.70;;
4422;SDS011;2224;49.814;8.650;2024-02-15T10:56:41;8.03;;;2.77;;
4422;SDS011;2224;49.814;8.650;2024-02-15T10:59:18;5.60;;;2.80;;
4422;SDS011;2224;49.814;8.650;2024-02-15T11:01:47;3.70;;;2.93;;
4422;SDS011;2224;49.814;8.650;2024-02-15T11:04:15;4.13;;;2.60;;
4422;SDS011;2224;49.814;8.650;2024-02-15T11:06:47;4.43;;;2.87;;
4422;SDS011;2224;49.814;8.650;2024-02-15T11:09:15;5.07;;;2.80;;
4422;SDS011;2224;49.814;8.650;2024-02-15T11:11:41;4.47;;;2.80;;
4422;SDS011;2224;49.814;8.650;2024-02-15T11:16:51;4.63;;;3.00;;
4422;SDS011;2224;49.814;8.650;2024-02-15T11:22:00;6.77;;;2.40;;
4422;SDS011;2224;49.814;8.650;2024-02-15T11:24:29;7.40;;;3.03;;
4422;SDS011;2224;49.814;8.650;2024-02-15T11:27:01;4.33;;;3.90;;
4422;SDS011;2224;49.814;8.650;2024-02-15T11:32:35;3.47;;;2.93;;
4422;SDS011;2224;49.814;8.650;2024-02-15T11:35:24;5.17;;;2.40;;
4422;SDS011;2224;49.814;8.650;2024-02-15T11:40:16;4.00;;;2.40;;
4422;SDS011;2224;49.814;8.650;2024-02-15T11:42:42;5.90;;;2.70;;
4422;SDS011;2224;49.814;8.650;2024-02-15T11:45:08;5.07;;;2.53;;
4422;SDS011;2224;49.814;8.650;2024-02-15T11:47:36;4.00;;;2.33;;
4422;SDS011;2224;49.814;8.650;2024-02-15T11:50:02;2.20;;;2.00;;
4422;SDS011;2224;49.814;8.650;2024-02-15T11:52:28;2.50;;;2.20;;
4422;SDS011;2224;49.814;8.650;2024-02-15T11:54:53;5.67;;;2.20;;
4422;SDS011;2224;49.814;8.650;2024-02-15T11:57:18;4.00;;;1.77;;
4422;SDS011;2224;49.814;8.650;2024-02-15T12:00:01;5.27;;;2.10;;
4422;SDS011;2224;49.814;8.650;2024-02-15T12:02:45;3.60;;;2.27;;
4422;SDS011;2224;49.814;8.650;2024-02-15T12:05:29;6.43;;;2.20;;
4422;SDS011;2224;49.814;8.650;2024-02-15T12:08:12;5.87;;;1.80;;
4422;SDS011;2224;49.814;8.650;2024-02-15T12:10:59;2.47;;;1.53;;
4422;SDS011;2224;49.814;8.650;2024-02-15T12:13:43;2.07;;;1.57;;
4422;SDS011;2224;49.814;8.650;2024-02-15T12:16:33;3.23;;;1.50;;
4422;SDS011;2224;49.814;8.650;2024-02-15T12:19:18;4.73;;;1.80;;
4422;SDS011;2224;49.814;8.650;2024-02-15T12:21:43;2.90;;;1.53;;
4422;SDS011;2224;49.814;8.650;2024-02-15T12:24:09;2.50;;;1.57;;
4422;SDS011;2224;49.814;8.650;2024-02-15T12:26:34;17.97;;;10.27;;
4422;SDS011;2224;49.814;8.650;2024-02-15T12:29:00;5.77;;;3.10;;
4422;SDS011;2224;49.814;8.650;2024-02-15T12:31:26;9.87;;;5.10;;
4422;SDS011;2224;49.814;8.650;2024-02-15T12:34:04;6.73;;;3.70;;
4422;SDS011;2224;49.814;8.650;2024-02-15T12:36:36;4.00;;;2.23;;
4422;SDS011;2224;49.814;8.650;2024-02-15T12:39:03;10.30;;;5.50;;
4422;SDS011;2224;49.814;8.650;2024-02-15T12:41:47;7.77;;;5.03;;
4422;SDS011;2224;49.814;8.650;2024-02-15T12:44:15;4.73;;;3.43;;
4422;SDS011;2224;49.814;8.650;2024-02-15T12:46:41;4.10;;;2.03;;
4422;SDS011;2224;49.814;8.650;2024-02-15T12:49:29;4.17;;;2.77;;
4422;SDS011;2224;49.814;8.650;2024-02-15T12:55:22;9.97;;;1.93;;
4422;SDS011;2224;49.814;8.650;2024-02-15T12:57:50;7.03;;;2.53;;
4422;SDS011;2224;49.814;8.650;2024-02-15T13:00:23;3.47;;;2.20;;
4422;SDS011;2224;49.814;8.650;2024-02-15T13:02:56;2.37;;;1.60;;
4422;SDS011;2224;49.814;8.650;2024-02-15T13:05:24;2.20;;;1.40;;
4422;SDS011;2224;49.814;8.650;2024-02-15T13:07:51;3.77;;;1.60;;
4422;SDS011;2224;49.814;8.650;2024-02-15T13:10:20;6.50;;;1.70;;
4422;SDS011;2224;49.814;8.650;2024-02-15T13:12:46;2.77;;;1.73;;
4422;SDS011;2224;49.814;8.650;2024-02-15T13:15:15;3.10;;;1.70;;
4422;SDS011;2224;49.814;8.650;2024-02-15T13:17:45;6.60;;;1.73;;
4422;SDS011;2224;49.814;8.650;2024-02-15T13:20:11;5.80;;;2.00;;
4422;SDS011;2224;49.814;8.650;2024-02-15T13:22:39;5.57;;;2.47;;
4422;SDS011;2224;49.814;8.650;2024-02-15T13:25:08;4.83;;;2.10;;
4422;SDS011;2224;49.814;8.650;2024-02-15T13:27:34;3.50;;;1.70;;
4422;SDS011;2224;49.814;8.650;2024-02-15T13:30:01;4.20;;;1.67;;
4422;SDS011;2224;49.814;8.650;2024-02-15T13:32:26;5.37;;;2.10;;
4422;SDS011;2224;49.814;8.650;2024-02-15T13:34:53;4.63;;;2.03;;
4422;SDS011;2224;49.814;8.650;2024-02-15T13:37:21;3.43;;;1.83;;
4422;SDS011;2224;49.814;8.650;2024-02-15T13:39:48;4.37;;;1.80;;
4422;SDS011;2224;49.814;8.650;2024-02-15T13:42:14;4.10;;;2.00;;
4422;SDS011;2224;49.814;8.650;2024-02-15T13:44:40;4.10;;;2.57;;
4422;SDS011;2224;49.814;8.650;2024-02-15T13:47:05;3.17;;;1.63;;
4422;SDS011;2224;49.814;8.650;2024-02-15T13:49:30;4.53;;;1.80;;
4422;SDS011;2224;49.814;8.650;2024-02-15T13:51:56;3.30;;;1.70;;
4422;SDS011;2224;49.814;8.650;2024-02-15T13:54:27;4.00;;;1.70;;
4422;SDS011;2224;49.814;8.650;2024-02-15T13:56:53;6.27;;;1.90;;
4422;SDS011;2224;49.814;8.650;2024-02-15T13:59:19;3.97;;;2.63;;
4422;SDS011;2224;49.814;8.650;2024-02-15T14:01:44;5.43;;;1.53;;
4422;SDS011;2224;49.814;8.650;2024-02-15T14:04:10;6.33;;;2.03;;
4422;SDS011;2224;49.814;8.650;2024-02-15T14:06:36;4.57;;;1.80;;
4422;SDS011;2224;49.814;8.650;2024-02-15T14:09:04;1.87;;;1.40;;
4422;SDS011;2224;49.814;8.650;2024-02-15T14:11:30;2.67;;;1.70;;
4422;SDS011;2224;49.814;8.650;2024-02-15T14:13:56;2.90;;;1.90;;
4422;SDS011;2224;49.814;8.650;2024-02-15T14:16:23;2.07;;;1.53;;
4422;SDS011;2224;49.814;8.650;2024-02-15T14:18:49;5.30;;;1.80;;
4422;SDS011;2224;49.814;8.650;2024-02-15T14:21:15;4.10;;;1.83;;
4422;SDS011;2224;49.814;8.650;2024-02-15T14:23:41;3.53;;;2.13;;
4422;SDS011;2224;49.814;8.650;2024-02-15T14:26:07;3.20;;;1.80;;
4422;SDS011;2224;49.814;8.650;2024-02-15T14:28:32;4.03;;;2.70;;
4422;SDS011;2224;49.814;8.650;2024-02-15T14:30:57;3.03;;;1.60;;
4422;SDS011;2224;49.814;8.650;2024-02-15T14:33:41;2.47;;;1.60;;
4422;SDS011;2224;49.814;8.650;2024-02-15T14:36:07;2.50;;;1.83;;
4422;SDS011;2224;49.814;8.650;2024-02-15T14:38:33;7.70;;;2.30;;
4422;SDS011;2224;49.814;8.650;2024-02-15T14:40:59;3.07;;;2.00;;
4422;SDS011;2224;49.814;8.650;2024-02-15T14:43:25;2.70;;;1.63;;
4422;SDS011;2224;49.814;8.650;2024-02-15T14:45:51;4.50;;;1.77;;
4422;SDS011;2224;49.814;8.650;2024-02-15T14:48:17;5.20;;;1.93;;
4422;SDS011;2224;49.814;8.650;2024-02-15T14:50:45;3.33;;;1.93;;
4422;SDS011;2224;49.814;8.650;2024-02-15T14:53:11;4.63;;;2.13;;
4422;SDS011;2224;49.814;8.650;2024-02-15T14:55:38;2.90;;;2.20;;
4422;SDS011;2224;49.814;8.650;2024-02-15T14:58:04;2.77;;;2.03;;
4422;SDS011;2224;49.814;8.650;2024-02-15T15:00:32;4.00;;;2.00;;
4422;SDS011;2224;49.814;8.650;2024-02-15T15:02:58;5.20;;;2.07;;
4422;SDS011;2224;49.814;8.650;2024-02-15T15:05:24;4.87;;;1.97;;
4422;SDS011;2224;49.814;8.650;2024-02-15T15:08:07;4.13;;;1.90;;
4422;SDS011;2224;49.814;8.650;2024-02-15T15:10:51;11.77;;;2.20;;
4422;SDS011;2224;49.814;8.650;2024-02-15T15:13:35;4.77;;;2.47;;
4422;SDS011;2224;49.814;8.650;2024-02-15T15:16:01;2.70;;;1.90;;
4422;SDS011;2224;49.814;8.650;2024-02-15T15:18:31;2.93;;;1.90;;
4422;SDS011;2224;49.814;8.650;2024-02-15T15:20:57;5.40;;;3.17;;
4422;SDS011;2224;49.814;8.650;2024-02-15T15:23:24;9.20;;;2.03;;
4422;SDS011;2224;49.814;8.650;2024-02-15T15:25:50;3.43;;;2.17;;
4422;SDS011;2224;49.814;8.650;2024-02-15T15:28:15;4.00;;;2.03;;
4422;SDS011;2224;49.814;8.650;2024-02-15T15:30:40;4.83;;;2.00;;
4422;SDS011;2224;49.814;8.650;2024-02-15T15:33:07;3.60;;;2.13;;
4422;SDS011;2224;49.814;8.650;2024-02-15T15:35:34;4.20;;;2.10;;